createdAt,value
2023-03-12T00:00:54.189Z,5.30
2023-03-12T00:03:34.312Z,4.50
2023-03-12T00:06:10.196Z,4.10
2023-03-12T00:08:38.248Z,4.20
2023-03-12T00:11:13.304Z,5.23
2023-03-12T00:13:42.516Z,4.60
2023-03-12T00:16:12.997Z,4.10
2023-03-12T00:18:41.255Z,4.57
2023-03-12T00:21:08.810Z,4.47
2023-03-12T00:23:36.213Z,4.80
2023-03-12T00:26:06.222Z,9.07
2023-03-12T00:28:35.108Z,5.70
2023-03-12T00:31:03.971Z,5.50
2023-03-12T00:33:31.126Z,5.27
2023-03-12T00:36:01.019Z,5.77
2023-03-12T00:38:28.226Z,5.53
2023-03-12T00:40:55.092Z,5.63
2023-03-12T00:43:22.403Z,6.10
2023-03-12T00:45:49.347Z,6.43
2023-03-12T00:48:16.533Z,6.10
2023-03-12T00:50:43.401Z,6.70
2023-03-12T00:53:10.536Z,6.00
2023-03-12T00:55:37.393Z,6.00
2023-03-12T00:58:04.538Z,6.13
2023-03-12T01:00:31.910Z,5.70
2023-03-12T01:02:59.161Z,6.33
2023-03-12T01:05:26.198Z,6.43
2023-03-12T01:07:53.768Z,5.93
2023-03-12T01:10:22.174Z,6.00
2023-03-12T01:12:49.397Z,6.13
2023-03-12T01:15:17.767Z,6.27
2023-03-12T01:17:44.989Z,5.82
2023-03-12T01:20:12.592Z,6.40
2023-03-12T01:22:40.224Z,6.33
2023-03-12T01:25:07.567Z,6.40
2023-03-12T01:27:34.816Z,6.77
2023-03-12T01:30:02.072Z,7.60
2023-03-12T01:32:29.365Z,7.87
2023-03-12T01:34:58.362Z,8.17
2023-03-12T01:37:25.729Z,7.70
2023-03-12T01:39:52.678Z,8.57
2023-03-12T01:42:20.006Z,7.73
2023-03-12T01:44:52.686Z,7.60
2023-03-12T01:47:20.910Z,8.00
2023-03-12T01:49:50.082Z,8.50
2023-03-12T01:52:22.803Z,7.87
2023-03-12T01:54:53.039Z,8.37
2023-03-12T01:57:24.792Z,8.57
2023-03-12T01:59:59.976Z,8.83
2023-03-12T02:02:29.984Z,9.27
2023-03-12T02:05:11.657Z,8.40
2023-03-12T02:07:38.953Z,9.97
2023-03-12T02:10:06.198Z,9.10
2023-03-12T02:12:33.394Z,8.30
2023-03-12T02:15:00.383Z,8.87
2023-03-12T02:17:27.679Z,8.23
2023-03-12T02:20:09.265Z,8.30
2023-03-12T02:22:37.908Z,9.13
2023-03-12T02:25:31.075Z,9.23
2023-03-12T02:28:00.591Z,9.03
2023-03-12T02:30:30.711Z,9.40
2023-03-12T02:33:01.721Z,8.70
2023-03-12T02:35:28.670Z,9.10
2023-03-12T02:37:57.158Z,9.33
2023-03-12T02:40:31.776Z,9.98
2023-03-12T02:42:59.353Z,9.90
2023-03-12T02:45:26.825Z,9.63
2023-03-12T02:47:53.977Z,9.17
2023-03-12T02:50:21.320Z,11.23
2023-03-12T02:52:48.522Z,9.67
2023-03-12T02:55:15.423Z,12.20
2023-03-12T02:57:43.878Z,10.20
2023-03-12T03:00:15.061Z,9.93
2023-03-12T03:02:43.538Z,9.80
2023-03-12T03:05:11.813Z,9.55
2023-03-12T03:07:39.290Z,10.57
2023-03-12T03:10:07.285Z,10.33
2023-03-12T03:12:36.665Z,9.48
2023-03-12T03:17:31.626Z,9.55
2023-03-12T03:19:58.494Z,10.37
2023-03-12T03:22:25.664Z,12.20
2023-03-12T03:24:53.766Z,9.80
2023-03-12T03:27:21.210Z,9.98
2023-03-12T03:32:15.380Z,9.57
2023-03-12T03:34:42.430Z,10.00
2023-03-12T03:37:10.027Z,8.60
2023-03-12T03:39:36.943Z,9.00
2023-03-12T03:42:04.268Z,8.57
2023-03-12T03:44:31.416Z,10.30
2023-03-12T03:46:58.969Z,9.77
2023-03-12T03:49:25.873Z,8.20
2023-03-12T03:51:53.018Z,8.67
2023-03-12T03:54:20.196Z,9.27
2023-03-12T03:56:47.736Z,11.00
2023-03-12T03:59:14.725Z,7.50
2023-03-12T04:01:41.919Z,8.30
2023-03-12T04:04:08.902Z,10.50
2023-03-12T04:06:36.644Z,9.93
2023-03-12T04:09:04.131Z,10.03
2023-03-12T04:11:31.432Z,9.90
2023-03-12T04:13:58.599Z,10.13
2023-03-12T04:16:26.322Z,10.40
2023-03-12T04:18:53.269Z,9.67
2023-03-12T04:21:20.577Z,10.67
2023-03-12T04:23:47.522Z,9.67
2023-03-12T04:26:14.916Z,10.57
2023-03-12T04:28:41.852Z,9.27
2023-03-12T04:31:11.626Z,9.13
2023-03-12T04:33:39.958Z,9.20
2023-03-12T04:36:08.097Z,9.45
2023-03-12T04:38:35.147Z,9.33
2023-03-12T04:41:07.446Z,8.13
2023-03-12T04:43:35.093Z,7.87
2023-03-12T04:46:03.044Z,10.60
2023-03-12T04:48:30.340Z,9.20
2023-03-12T04:50:57.555Z,9.00
2023-03-12T04:53:25.049Z,8.50
2023-03-12T04:55:52.861Z,8.93
2023-03-12T04:58:21.357Z,9.30
2023-03-12T05:00:49.654Z,9.05
2023-03-12T05:03:17.601Z,9.20
2023-03-12T05:05:45.086Z,9.15
2023-03-12T05:08:11.991Z,9.53
2023-03-12T05:10:39.399Z,8.50
2023-03-12T05:13:17.449Z,7.00
2023-03-12T05:15:45.041Z,8.07
2023-03-12T05:18:11.939Z,8.20
2023-03-12T05:20:39.849Z,10.30
2023-03-12T05:23:06.755Z,8.20
2023-03-12T05:25:33.917Z,8.07
2023-03-12T05:28:00.859Z,9.27
2023-03-12T05:30:28.047Z,9.97
2023-03-12T05:32:55.051Z,8.37
2023-03-12T05:35:23.157Z,8.43
2023-03-12T05:37:50.525Z,8.07
2023-03-12T05:40:17.788Z,7.53
2023-03-12T05:42:44.631Z,9.00
2023-03-12T05:45:11.945Z,9.30
2023-03-12T05:47:38.933Z,7.67
2023-03-12T05:50:06.663Z,9.37
2023-03-12T05:52:33.719Z,8.47
2023-03-12T05:55:00.869Z,7.97
2023-03-12T05:57:27.787Z,7.97
2023-03-12T05:59:54.925Z,7.87
2023-03-12T06:02:21.786Z,7.03
2023-03-12T06:04:49.008Z,7.77
2023-03-12T06:07:15.912Z,7.70
2023-03-12T06:09:43.226Z,6.93
2023-03-12T06:12:10.092Z,8.93
2023-03-12T06:14:37.346Z,8.07
2023-03-12T06:17:04.220Z,6.33
2023-03-12T06:19:31.516Z,9.00
2023-03-12T06:21:58.614Z,8.23
2023-03-12T06:24:25.931Z,7.40
2023-03-12T06:26:52.879Z,7.83
2023-03-12T06:29:20.076Z,8.27
2023-03-12T06:31:48.414Z,7.77
2023-03-12T06:34:16.909Z,7.32
2023-03-12T06:36:44.120Z,7.20
2023-03-12T06:39:11.281Z,7.13
2023-03-12T06:41:38.236Z,6.63
2023-03-12T06:44:06.541Z,20.43
2023-03-12T06:46:33.838Z,15.83
2023-03-12T06:49:01.063Z,19.77
2023-03-12T06:51:28.176Z,9.50
2023-03-12T06:53:55.452Z,24.50
2023-03-12T06:56:22.309Z,10.97
2023-03-12T06:58:50.280Z,17.77
2023-03-12T07:01:17.132Z,7.10
2023-03-12T07:03:44.387Z,8.55
2023-03-12T07:06:22.238Z,9.35
2023-03-12T07:08:49.900Z,7.67
2023-03-12T07:11:17.784Z,8.10
2023-03-12T07:13:45.091Z,7.20
2023-03-12T07:16:12.607Z,8.10
2023-03-12T07:18:39.883Z,7.13
2023-03-12T07:21:07.150Z,8.13
2023-03-12T07:23:34.384Z,7.10
2023-03-12T07:26:01.336Z,5.72
2023-03-12T07:28:28.662Z,6.35
2023-03-12T07:31:01.034Z,6.57
2023-03-12T07:33:28.423Z,6.70
2023-03-12T07:35:55.513Z,7.38
2023-03-12T07:38:22.830Z,8.07
2023-03-12T07:40:54.928Z,6.00
2023-03-12T07:43:22.739Z,7.63
2023-03-12T07:45:50.586Z,6.47
2023-03-12T07:48:20.154Z,5.80
2023-03-12T07:50:47.802Z,7.82
2023-03-12T07:53:15.059Z,15.68
2023-03-12T07:55:44.561Z,6.70
2023-03-12T07:58:13.087Z,9.73
2023-03-12T08:00:40.244Z,12.17
2023-03-12T08:03:07.759Z,9.33
2023-03-12T08:05:35.122Z,5.97
2023-03-12T08:08:02.413Z,10.20
2023-03-12T08:10:29.385Z,9.77
2023-03-12T08:12:56.775Z,14.93
2023-03-12T08:15:23.780Z,12.97
2023-03-12T08:17:51.217Z,21.50
2023-03-12T08:20:18.191Z,10.13
2023-03-12T08:22:45.336Z,6.90
2023-03-12T08:25:12.593Z,13.00
2023-03-12T08:27:39.893Z,17.00
2023-03-12T08:30:07.290Z,17.92
2023-03-12T08:32:34.677Z,6.93
2023-03-12T08:35:01.720Z,6.82
2023-03-12T08:37:29.043Z,6.28
2023-03-12T08:39:55.953Z,4.38
2023-03-12T08:42:23.200Z,6.90
2023-03-12T08:44:50.173Z,5.05
2023-03-12T08:47:17.381Z,8.15
2023-03-12T08:49:44.408Z,7.20
2023-03-12T08:52:11.576Z,13.82
2023-03-12T08:54:38.483Z,5.85
2023-03-12T08:57:05.731Z,5.75
2023-03-12T08:59:32.572Z,6.13
2023-03-12T09:01:59.811Z,19.77
2023-03-12T09:04:26.721Z,6.30
2023-03-12T09:06:53.897Z,5.35
2023-03-12T09:09:20.731Z,5.72
2023-03-12T09:11:47.895Z,11.57
2023-03-12T09:14:57.561Z,8.52
2023-03-12T09:17:02.340Z,4.78
2023-03-12T09:19:29.563Z,7.65
2023-03-12T09:21:57.866Z,5.25
2023-03-12T09:24:25.043Z,6.50
2023-03-12T09:26:52.310Z,6.57
2023-03-12T09:29:19.210Z,20.50
2023-03-12T09:31:46.404Z,22.27
2023-03-12T09:34:13.340Z,7.50
2023-03-12T09:36:40.546Z,7.78
2023-03-12T09:39:07.727Z,6.63
2023-03-12T09:41:39.651Z,6.88
2023-03-12T09:44:30.669Z,32.83
2023-03-12T09:47:05.487Z,29.77
2023-03-12T09:49:45.299Z,21.25
2023-03-12T09:52:30.809Z,85.95
2023-03-12T09:55:03.683Z,24.05
2023-03-12T09:57:30.894Z,59.70
2023-03-12T09:59:58.100Z,12.85
2023-03-12T10:02:38.943Z,5.03
2023-03-12T10:05:11.857Z,4.35
2023-03-12T10:07:48.283Z,9.88
2023-03-12T10:10:28.096Z,4.43
2023-03-12T10:13:36.907Z,4.85
2023-03-12T10:16:23.602Z,3.20
2023-03-12T10:19:09.421Z,3.97
2023-03-12T10:21:49.372Z,4.97
2023-03-12T10:24:25.179Z,5.18
2023-03-12T10:26:55.950Z,4.82
2023-03-12T10:29:29.031Z,4.60
2023-03-12T10:32:11.196Z,5.60
2023-03-12T10:34:43.090Z,8.57
2023-03-12T10:37:30.261Z,21.08
2023-03-12T10:40:00.320Z,4.75
2023-03-12T10:42:29.877Z,25.33
2023-03-12T10:45:19.602Z,12.52
2023-03-12T10:47:53.444Z,16.98
2023-03-12T10:50:26.896Z,15.35
2023-03-12T10:53:14.976Z,8.23
2023-03-12T10:55:42.221Z,8.20
2023-03-12T10:58:22.912Z,4.97
2023-03-12T11:01:01.417Z,13.48
2023-03-12T11:03:29.422Z,7.93
2023-03-12T11:06:00.982Z,6.68
2023-03-12T11:08:33.068Z,14.48
2023-03-12T11:11:01.879Z,11.45
2023-03-12T11:13:33.590Z,4.93
2023-03-12T11:16:20.772Z,4.28
2023-03-12T11:19:03.878Z,3.00
2023-03-12T11:21:35.434Z,4.70
2023-03-12T11:24:10.305Z,3.45
2023-03-12T11:26:40.442Z,4.43
2023-03-12T11:29:13.454Z,3.88
2023-03-12T11:31:57.884Z,2.50
2023-03-12T11:34:31.282Z,5.65
2023-03-12T11:37:06.691Z,1.90
2023-03-12T11:39:33.559Z,2.55
2023-03-12T11:42:14.665Z,2.17
2023-03-12T11:45:14.995Z,9.07
2023-03-12T11:48:15.889Z,9.15
2023-03-12T11:51:01.185Z,4.85
2023-03-12T11:53:42.568Z,5.70
2023-03-12T11:56:38.663Z,6.63
2023-03-12T11:59:42.920Z,8.77
2023-03-12T12:02:21.676Z,5.55
2023-03-12T12:05:00.655Z,3.90
2023-03-12T12:07:36.274Z,8.65
2023-03-12T12:10:40.521Z,19.63
2023-03-12T12:13:26.094Z,23.35
2023-03-12T12:16:38.450Z,25.27
2023-03-12T12:19:05.838Z,29.30
2023-03-12T12:22:04.233Z,24.55
2023-03-12T12:24:51.536Z,6.38
2023-03-12T12:27:26.127Z,8.13
2023-03-12T12:30:11.591Z,17.08
2023-03-12T12:32:41.945Z,23.58
2023-03-12T12:35:29.855Z,20.10
2023-03-12T12:37:59.570Z,15.65
2023-03-12T12:40:54.856Z,21.40
2023-03-12T12:43:37.887Z,23.35
2023-03-12T12:46:10.482Z,12.65
2023-03-12T12:48:57.399Z,13.18
2023-03-12T12:51:30.353Z,7.63
2023-03-12T12:54:16.853Z,11.70
2023-03-12T12:57:11.293Z,8.25
2023-03-12T12:59:50.938Z,4.25
2023-03-12T13:02:22.190Z,7.22
2023-03-12T13:04:50.114Z,3.67
2023-03-12T13:07:20.171Z,3.55
2023-03-12T13:09:52.951Z,2.80
2023-03-12T13:12:55.206Z,13.15
2023-03-12T13:15:28.493Z,3.45
2023-03-12T13:17:55.416Z,5.05
2023-03-12T13:20:30.539Z,5.05
2023-03-12T13:23:21.689Z,3.10
2023-03-12T13:26:15.164Z,6.10
2023-03-12T13:29:06.125Z,4.07
2023-03-12T13:31:35.570Z,2.97
2023-03-12T13:34:17.750Z,2.78
2023-03-12T13:36:47.367Z,2.58
2023-03-12T13:41:54.941Z,3.53
2023-03-12T13:44:27.641Z,3.38
2023-03-12T13:47:15.921Z,3.05
2023-03-12T13:49:59.980Z,3.17
2023-03-12T13:52:30.860Z,3.17
2023-03-12T13:55:03.096Z,2.38
2023-03-12T13:58:05.897Z,3.28
2023-03-12T14:00:37.294Z,6.53
2023-03-12T14:03:14.801Z,3.13
2023-03-12T14:05:52.525Z,3.30
2023-03-12T14:08:40.513Z,4.80
2023-03-12T14:11:33.593Z,3.38
2023-03-12T14:14:25.799Z,5.10
2023-03-12T14:16:56.752Z,2.65
2023-03-12T14:19:27.071Z,2.50
2023-03-12T14:21:56.338Z,3.27
2023-03-12T14:24:34.415Z,2.70
2023-03-12T14:27:04.815Z,3.47
2023-03-12T14:29:38.888Z,3.17
2023-03-12T14:32:17.271Z,2.90
2023-03-12T14:35:16.532Z,3.53
2023-03-12T14:37:51.396Z,9.10
2023-03-12T14:40:46.361Z,29.77
2023-03-12T14:43:29.102Z,18.90
2023-03-12T14:45:59.151Z,4.83
2023-03-12T14:48:35.363Z,6.80
2023-03-12T14:51:05.470Z,4.23
2023-03-12T14:53:35.546Z,4.60
2023-03-12T14:56:12.312Z,3.00
2023-03-12T14:58:45.560Z,6.53
2023-03-12T15:01:17.811Z,5.83
2023-03-12T15:03:49.400Z,5.63
2023-03-12T15:06:29.459Z,9.80
2023-03-12T15:08:58.092Z,14.57
2023-03-12T15:11:28.475Z,9.63
2023-03-12T15:14:01.791Z,8.63
2023-03-12T15:16:29.434Z,4.60
2023-03-12T15:18:57.251Z,6.70
2023-03-12T15:21:25.310Z,5.60
2023-03-12T15:23:52.500Z,6.70
2023-03-12T15:26:19.681Z,5.57
2023-03-12T15:29:14.616Z,4.57
2023-03-12T15:31:43.245Z,3.57
2023-03-12T15:34:13.012Z,4.88
2023-03-12T15:36:49.824Z,13.07
2023-03-12T15:39:26.783Z,7.03
2023-03-12T15:41:56.405Z,5.60
2023-03-12T15:44:26.358Z,6.60
2023-03-12T15:47:10.929Z,7.43
2023-03-12T15:49:39.034Z,10.10
2023-03-12T15:52:18.430Z,15.40
2023-03-12T15:57:28.311Z,9.03
2023-03-12T16:00:16.964Z,11.70
2023-03-12T16:03:15.281Z,5.88
2023-03-12T16:05:42.758Z,5.47
2023-03-12T16:08:20.681Z,14.00
2023-03-12T16:10:50.863Z,6.30
2023-03-12T16:13:21.186Z,8.60
2023-03-12T16:15:48.759Z,7.17
2023-03-12T16:18:19.283Z,5.63
2023-03-12T16:20:47.161Z,3.73
2023-03-12T16:23:14.867Z,3.07
2023-03-12T16:25:44.335Z,3.87
2023-03-12T16:28:14.485Z,4.80
2023-03-12T16:30:41.884Z,9.70
2023-03-12T16:33:15.372Z,8.93
2023-03-12T16:35:42.746Z,9.67
2023-03-12T16:38:10.494Z,13.23
2023-03-12T16:40:41.227Z,18.43
2023-03-12T16:43:19.113Z,22.47
2023-03-12T16:45:47.585Z,15.73
2023-03-12T16:48:18.584Z,19.38
2023-03-12T16:50:52.452Z,18.40
2023-03-12T16:53:19.951Z,10.57
2023-03-12T16:55:56.499Z,19.77
2023-03-12T16:58:25.837Z,84.33
2023-03-12T17:00:54.663Z,45.20
2023-03-12T17:06:00.011Z,18.47
2023-03-12T17:08:27.464Z,27.97
2023-03-12T17:10:55.708Z,10.90
2023-03-12T17:13:25.936Z,8.88
2023-03-12T17:15:53.268Z,8.40
2023-03-12T17:18:21.453Z,5.87
2023-03-12T17:20:50.975Z,5.07
2023-03-12T17:23:18.348Z,48.17
2023-03-12T17:25:46.068Z,180.07
2023-03-12T17:28:15.458Z,16.87
2023-03-12T17:33:13.958Z,5.67
2023-03-12T17:35:42.083Z,4.67
2023-03-12T17:38:10.351Z,4.50
2023-03-12T17:40:44.615Z,5.53
2023-03-12T17:43:12.453Z,118.50
2023-03-12T17:45:39.872Z,78.97
2023-03-12T17:48:07.201Z,88.33
2023-03-12T17:50:34.511Z,133.13
2023-03-12T17:53:01.899Z,63.77
2023-03-12T17:55:28.757Z,18.77
2023-03-12T17:57:56.026Z,19.77
2023-03-12T18:00:23.232Z,11.83
2023-03-12T18:02:50.661Z,28.23
2023-03-12T18:05:17.781Z,75.53
2023-03-12T18:07:47.595Z,94.87
2023-03-12T18:10:15.177Z,62.57
2023-03-12T18:12:42.556Z,19.97
2023-03-12T18:15:15.262Z,15.37
2023-03-12T18:17:44.911Z,10.77
2023-03-12T18:20:16.702Z,21.87
2023-03-12T18:22:45.460Z,30.83
2023-03-12T18:25:12.837Z,30.10
2023-03-12T18:27:40.317Z,28.60
2023-03-12T18:30:11.499Z,46.53
2023-03-12T18:32:40.168Z,58.83
2023-03-12T18:35:08.482Z,16.90
2023-03-12T18:37:35.801Z,26.95
2023-03-12T18:40:02.868Z,22.67
2023-03-12T18:42:30.557Z,26.40
2023-03-12T18:44:57.504Z,34.70
2023-03-12T18:47:24.835Z,61.70
2023-03-12T18:49:55.063Z,57.17
2023-03-12T18:52:22.637Z,56.30
2023-03-12T18:54:49.599Z,40.20
2023-03-12T18:57:16.799Z,35.40
2023-03-12T18:59:46.114Z,37.03
2023-03-12T19:02:13.545Z,32.07
2023-03-12T19:04:40.481Z,25.27
2023-03-12T19:07:10.540Z,23.53
2023-03-12T19:09:37.764Z,22.80
2023-03-12T19:12:05.243Z,24.33
2023-03-12T19:14:32.048Z,33.00
2023-03-12T19:16:59.265Z,27.63
2023-03-12T19:19:26.464Z,23.47
2023-03-12T19:21:53.824Z,37.77
2023-03-12T19:24:20.719Z,36.57
2023-03-12T19:26:47.919Z,43.50
2023-03-12T19:29:16.547Z,49.67
2023-03-12T19:31:44.009Z,41.63
2023-03-12T19:34:10.956Z,42.37
2023-03-12T19:36:38.223Z,33.70
2023-03-12T19:39:15.232Z,35.07
2023-03-12T19:41:47.663Z,39.13
2023-03-12T19:44:14.560Z,43.17
2023-03-12T19:46:43.337Z,42.80
2023-03-12T19:49:10.470Z,42.25
2023-03-12T19:51:40.233Z,37.97
2023-03-12T19:54:07.759Z,35.73
2023-03-12T19:56:35.014Z,39.03
2023-03-12T19:59:01.932Z,37.20
2023-03-12T20:01:29.129Z,38.17
2023-03-12T20:03:55.965Z,33.90
2023-03-12T20:06:23.222Z,35.17
2023-03-12T20:08:50.218Z,35.00
2023-03-12T20:11:17.456Z,32.10
2023-03-12T20:13:45.443Z,27.67
2023-03-12T20:16:14.060Z,23.50
2023-03-12T20:18:41.075Z,18.80
2023-03-12T20:21:08.491Z,25.83
2023-03-12T20:23:35.532Z,24.90
2023-03-12T20:26:03.175Z,23.83
2023-03-12T20:28:30.152Z,30.23
2023-03-12T20:30:57.516Z,25.90
2023-03-12T20:33:24.489Z,30.57
2023-03-12T20:35:51.834Z,31.27
2023-03-12T20:38:18.778Z,29.03
2023-03-12T20:40:46.581Z,28.90
2023-03-12T20:43:13.546Z,27.53
2023-03-12T20:45:40.936Z,28.97
2023-03-12T20:48:08.170Z,27.30
2023-03-12T20:50:37.861Z,27.43
2023-03-12T20:53:04.755Z,28.27
2023-03-12T20:55:31.993Z,26.70
2023-03-12T20:57:59.635Z,27.93
2023-03-12T21:00:26.955Z,25.57
2023-03-12T21:02:53.855Z,27.90
2023-03-12T21:05:23.908Z,25.13
2023-03-12T21:07:53.011Z,29.83
2023-03-12T21:10:21.096Z,28.98
2023-03-12T21:12:47.957Z,29.97
2023-03-12T21:15:15.392Z,30.67
2023-03-12T21:17:42.510Z,30.90
2023-03-12T21:20:13.600Z,33.37
2023-03-12T21:22:43.371Z,31.63
2023-03-12T21:25:11.892Z,29.93
2023-03-12T21:27:49.844Z,35.83
2023-03-12T21:30:18.418Z,46.77
2023-03-12T21:32:45.466Z,40.10
2023-03-12T21:35:12.727Z,33.50
2023-03-12T21:37:40.007Z,40.37
2023-03-12T21:40:09.097Z,44.80
2023-03-12T21:42:36.079Z,34.45
2023-03-12T21:45:03.692Z,30.77
2023-03-12T21:47:30.652Z,27.33
2023-03-12T21:49:58.194Z,31.43
2023-03-12T21:52:25.156Z,23.03
2023-03-12T21:54:52.402Z,19.20
2023-03-12T21:57:19.319Z,18.23
2023-03-12T21:59:46.586Z,15.23
2023-03-12T22:02:14.613Z,14.17
2023-03-12T22:04:41.890Z,12.90
2023-03-12T22:07:08.849Z,40.70
2023-03-12T22:09:36.147Z,27.33
2023-03-12T22:12:03.592Z,16.00
2023-03-12T22:14:30.845Z,17.27
2023-03-12T22:16:58.186Z,23.87
2023-03-12T22:19:25.345Z,20.83
2023-03-12T22:21:52.544Z,15.60
2023-03-12T22:24:19.958Z,15.73
2023-03-12T22:26:46.981Z,15.97
2023-03-12T22:29:14.213Z,14.13
2023-03-12T22:31:41.292Z,12.90
2023-03-12T22:34:09.089Z,14.10
2023-03-12T22:36:38.640Z,17.73
2023-03-12T22:39:05.937Z,15.07
2023-03-12T22:41:33.157Z,14.27
2023-03-12T22:44:05.946Z,12.07
2023-03-12T22:46:33.621Z,13.43
2023-03-12T22:49:02.534Z,12.43
2023-03-12T22:51:31.774Z,11.90
2023-03-12T22:53:59.094Z,10.73
2023-03-12T22:56:26.605Z,13.13
2023-03-12T22:58:55.465Z,12.97
2023-03-12T23:01:23.317Z,8.30
2023-03-12T23:03:51.188Z,10.15
2023-03-12T23:06:26.388Z,8.40
2023-03-12T23:08:55.159Z,8.73
2023-03-12T23:11:25.298Z,10.40
2023-03-12T23:13:53.525Z,8.47
2023-03-12T23:16:23.001Z,7.33
2023-03-12T23:18:50.889Z,8.27
2023-03-12T23:21:21.825Z,8.53
2023-03-12T23:23:50.270Z,10.07
2023-03-12T23:26:21.871Z,9.77
2023-03-12T23:28:51.179Z,9.70
2023-03-12T23:31:18.409Z,9.50
2023-03-12T23:33:45.701Z,8.77
2023-03-12T23:36:15.387Z,9.17
2023-03-12T23:38:43.484Z,8.73
2023-03-12T23:41:19.084Z,8.33
2023-03-12T23:43:46.333Z,8.83
2023-03-12T23:46:14.160Z,8.03
2023-03-12T23:48:41.745Z,7.82
2023-03-12T23:51:29.637Z,7.97
2023-03-12T23:53:59.356Z,8.00
2023-03-12T23:56:30.816Z,9.50
2023-03-12T23:58:58.011Z,7.97
